createdAt,value
2017-05-22T00:00:53.767Z,8.64
2017-05-22T00:03:22.005Z,9.42
2017-05-22T00:05:49.047Z,8.42
2017-05-22T00:08:16.083Z,8.60
2017-05-22T00:10:43.438Z,8.08
2017-05-22T00:13:10.429Z,9.10
2017-05-22T00:15:37.437Z,8.36
2017-05-22T00:18:04.003Z,8.86
2017-05-22T00:20:31.021Z,9.40
2017-05-22T00:22:58.017Z,8.46
2017-05-22T00:25:26.158Z,9.70
2017-05-22T00:27:53.164Z,9.06
2017-05-22T00:30:20.188Z,11.26
2017-05-22T00:32:47.581Z,10.86
2017-05-22T00:35:14.586Z,9.08
2017-05-22T00:37:41.605Z,10.52
2017-05-22T00:40:08.922Z,9.14
2017-05-22T00:42:35.934Z,7.96
2017-05-22T00:45:02.942Z,9.48
2017-05-22T00:47:30.273Z,9.02
2017-05-22T00:49:57.312Z,9.48
2017-05-22T00:52:24.314Z,7.76
2017-05-22T00:54:51.685Z,8.94
2017-05-22T00:57:18.695Z,8.80
2017-05-22T00:59:45.706Z,9.92
2017-05-22T01:02:13.937Z,9.36
2017-05-22T01:04:40.933Z,8.10
2017-05-22T01:07:07.950Z,8.08
2017-05-22T01:09:36.184Z,8.80
2017-05-22T01:12:03.193Z,7.78
2017-05-22T01:14:30.221Z,7.46
2017-05-22T01:16:57.591Z,8.40
2017-05-22T01:19:24.613Z,8.62
2017-05-22T01:21:51.614Z,9.32
2017-05-22T01:24:18.946Z,7.98
2017-05-22T01:26:45.958Z,9.30
2017-05-22T01:29:13.026Z,8.28
2017-05-22T01:31:41.246Z,8.34
2017-05-22T01:34:08.254Z,8.88
2017-05-22T01:36:35.278Z,8.52
2017-05-22T01:39:03.490Z,8.52
2017-05-22T01:41:31.579Z,8.38
2017-05-22T01:43:58.633Z,8.02
2017-05-22T01:46:26.899Z,8.58
2017-05-22T01:48:53.957Z,8.60
2017-05-22T01:51:21.005Z,9.42
2017-05-22T01:53:48.341Z,9.36
2017-05-22T01:56:15.377Z,9.18
2017-05-22T01:58:42.387Z,9.86
2017-05-22T02:01:10.489Z,10.42
2017-05-22T02:03:37.485Z,11.08
2017-05-22T02:06:04.497Z,10.02
2017-05-22T02:08:32.666Z,11.10
2017-05-22T02:10:59.667Z,10.98
2017-05-22T02:13:26.678Z,10.08
2017-05-22T02:15:54.948Z,12.02
2017-05-22T02:18:21.949Z,11.68
2017-05-22T02:20:48.965Z,12.64
2017-05-22T02:23:17.103Z,11.32
2017-05-22T02:25:44.429Z,10.42
2017-05-22T02:28:11.426Z,13.92
2017-05-22T02:30:38.738Z,10.42
2017-05-22T02:33:05.753Z,10.20
2017-05-22T02:35:32.769Z,12.14
2017-05-22T02:38:00.073Z,10.24
2017-05-22T02:40:27.110Z,12.56
2017-05-22T02:42:54.121Z,12.66
2017-05-22T02:45:21.525Z,10.72
2017-05-22T02:47:48.533Z,10.86
2017-05-22T02:50:15.541Z,11.04
2017-05-22T02:52:42.870Z,11.88
2017-05-22T02:55:09.901Z,9.90
2017-05-22T02:57:36.913Z,11.06
2017-05-22T03:00:05.170Z,11.38
2017-05-22T03:02:32.242Z,11.16
2017-05-22T03:04:59.269Z,9.36
2017-05-22T03:07:27.449Z,10.30
2017-05-22T03:09:54.465Z,10.72
2017-05-22T03:12:21.470Z,10.86
2017-05-22T03:14:49.501Z,10.86
2017-05-22T03:17:16.502Z,11.02
2017-05-22T03:19:43.509Z,14.50
2017-05-22T03:22:11.546Z,12.02
2017-05-22T03:24:38.573Z,11.16
2017-05-22T03:27:05.579Z,10.76
2017-05-22T03:29:32.255Z,12.44
2017-05-22T03:31:59.277Z,12.16
2017-05-22T03:34:26.280Z,10.22
2017-05-22T03:36:53.601Z,11.68
2017-05-22T03:39:23.861Z,10.94
2017-05-22T03:41:50.872Z,10.26
2017-05-22T03:44:18.999Z,10.60
2017-05-22T03:46:46.005Z,11.00
2017-05-22T03:49:13.021Z,11.54
2017-05-22T03:51:40.388Z,12.06
2017-05-22T03:54:07.394Z,14.08
2017-05-22T03:56:34.393Z,12.22
2017-05-22T03:59:01.730Z,12.56
2017-05-22T04:01:28.734Z,17.66
2017-05-22T04:03:55.750Z,12.04
2017-05-22T04:06:23.185Z,13.84
2017-05-22T04:08:50.189Z,13.84
2017-05-22T04:11:17.193Z,13.78
2017-05-22T04:13:44.506Z,13.62
2017-05-22T04:16:11.502Z,17.70
2017-05-22T04:18:38.515Z,12.10
2017-05-22T04:21:05.868Z,14.06
2017-05-22T04:23:32.857Z,13.78
2017-05-22T04:25:59.865Z,13.84
2017-05-22T04:28:27.214Z,13.02
2017-05-22T04:30:54.223Z,12.70
2017-05-22T04:33:21.227Z,12.20
2017-05-22T04:35:48.569Z,12.14
2017-05-22T04:38:15.570Z,13.52
2017-05-22T04:40:42.573Z,12.92
2017-05-22T04:43:09.910Z,14.12
2017-05-22T04:45:36.914Z,12.22
2017-05-22T04:48:03.915Z,13.86
2017-05-22T04:50:31.248Z,13.88
2017-05-22T04:52:59.281Z,11.98
2017-05-22T04:55:26.294Z,13.54
2017-05-22T04:57:54.462Z,13.02
2017-05-22T05:00:21.535Z,14.40
2017-05-22T05:02:48.557Z,13.44
2017-05-22T05:05:16.691Z,12.66
2017-05-22T05:07:43.689Z,13.54
2017-05-22T05:10:10.709Z,15.56
2017-05-22T05:12:38.782Z,13.46
2017-05-22T05:15:05.801Z,13.18
2017-05-22T05:17:32.802Z,14.56
2017-05-22T05:20:01.005Z,12.38
2017-05-22T05:22:28.016Z,12.08
2017-05-22T05:24:55.066Z,13.92
2017-05-22T05:27:22.385Z,14.36
2017-05-22T05:29:49.407Z,11.66
2017-05-22T05:32:16.465Z,13.08
2017-05-22T05:34:43.837Z,11.76
2017-05-22T05:37:10.901Z,11.72
2017-05-22T05:39:37.905Z,13.02
2017-05-22T05:42:04.689Z,12.84
2017-05-22T05:44:32.713Z,12.28
2017-05-22T05:46:59.711Z,12.92
2017-05-22T05:49:27.030Z,11.20
2017-05-22T05:51:55.049Z,11.62
2017-05-22T05:54:21.332Z,10.78
2017-05-22T05:56:49.348Z,10.52
2017-05-22T05:59:16.346Z,10.28
2017-05-22T06:01:43.355Z,9.80
2017-05-22T06:04:11.374Z,8.40
2017-05-22T06:06:38.375Z,8.56
2017-05-22T06:09:06.393Z,10.18
2017-05-22T06:11:33.730Z,9.16
2017-05-22T06:14:00.730Z,8.90
2017-05-22T06:16:27.729Z,7.96
2017-05-22T06:18:55.019Z,7.50
2017-05-22T06:21:22.018Z,7.84
2017-05-22T06:23:49.019Z,7.86
2017-05-22T06:26:16.324Z,8.26
2017-05-22T06:28:44.376Z,8.22
2017-05-22T06:31:11.378Z,7.02
2017-05-22T06:33:38.791Z,7.38
2017-05-22T06:36:06.787Z,7.52
2017-05-22T06:38:33.782Z,6.94
2017-05-22T06:41:01.165Z,7.42
2017-05-22T06:43:28.161Z,7.14
2017-05-22T06:45:55.178Z,6.98
2017-05-22T06:48:23.449Z,7.70
2017-05-22T06:50:50.442Z,7.22
2017-05-22T06:53:17.436Z,5.92
2017-05-22T06:55:44.769Z,8.20
2017-05-22T06:58:11.769Z,6.70
2017-05-22T07:00:38.765Z,6.64
2017-05-22T07:03:07.035Z,6.58
2017-05-22T07:05:34.058Z,7.04
2017-05-22T07:08:00.318Z,6.60
2017-05-22T07:10:27.642Z,7.74
2017-05-22T07:12:53.926Z,6.60
2017-05-22T07:15:20.930Z,6.68
2017-05-22T07:17:48.258Z,7.28
2017-05-22T07:20:15.286Z,7.16
2017-05-22T07:22:42.292Z,7.02
2017-05-22T07:25:10.337Z,7.14
2017-05-22T07:27:37.354Z,8.16
2017-05-22T07:30:05.404Z,8.92
2017-05-22T07:32:32.725Z,7.76
2017-05-22T07:34:59.731Z,7.28
2017-05-22T07:37:25.997Z,5.90
2017-05-22T07:39:53.354Z,6.28
2017-05-22T07:42:20.361Z,5.48
2017-05-22T07:44:47.365Z,5.72
2017-05-22T07:47:14.698Z,6.18
2017-05-22T07:49:41.702Z,6.14
2017-05-22T07:52:07.962Z,6.24
2017-05-22T07:54:36.114Z,6.36
2017-05-22T07:57:03.139Z,5.44
2017-05-22T07:59:31.153Z,6.06
2017-05-22T08:01:59.251Z,5.82
2017-05-22T08:04:26.256Z,6.12
2017-05-22T08:06:53.896Z,6.36
2017-05-22T08:09:22.322Z,5.38
2017-05-22T08:11:49.346Z,4.68
2017-05-22T08:14:16.349Z,5.38
2017-05-22T08:16:44.694Z,5.60
2017-05-22T08:19:11.693Z,6.34
2017-05-22T08:21:38.706Z,5.28
2017-05-22T08:24:06.033Z,5.22
2017-05-22T08:26:33.033Z,4.72
2017-05-22T08:29:00.034Z,4.78
2017-05-22T08:31:27.446Z,6.02
2017-05-22T08:33:54.449Z,5.02
2017-05-22T08:36:21.445Z,6.10
2017-05-22T08:38:49.801Z,4.72
2017-05-22T08:41:16.811Z,4.70
2017-05-22T08:43:43.814Z,5.04
2017-05-22T08:46:12.038Z,4.72
2017-05-22T08:48:39.033Z,5.84
2017-05-22T08:51:06.029Z,4.80
2017-05-22T08:53:34.078Z,5.02
2017-05-22T08:56:01.079Z,4.78
2017-05-22T08:58:28.110Z,4.02
2017-05-22T09:00:56.468Z,4.14
2017-05-22T09:03:23.462Z,4.22
2017-05-22T09:05:50.458Z,5.22
2017-05-22T09:08:18.514Z,5.02
2017-05-22T09:10:45.626Z,4.22
2017-05-22T09:13:12.640Z,3.80
2017-05-22T09:15:39.966Z,4.96
2017-05-22T09:18:06.998Z,3.94
2017-05-22T09:20:34.001Z,3.50
2017-05-22T09:23:02.062Z,3.78
2017-05-22T09:25:29.109Z,3.74
2017-05-22T09:27:56.117Z,4.18
2017-05-22T09:30:24.390Z,3.90
2017-05-22T09:32:51.386Z,4.02
2017-05-22T09:35:18.389Z,3.86
2017-05-22T09:37:45.682Z,3.20
2017-05-22T09:40:12.721Z,4.08
2017-05-22T09:42:39.723Z,3.68
2017-05-22T09:45:07.077Z,3.70
2017-05-22T09:47:34.104Z,3.78
2017-05-22T09:50:01.109Z,4.26
2017-05-22T09:52:28.425Z,3.94
2017-05-22T09:54:56.190Z,3.76
2017-05-22T09:57:23.188Z,3.44
2017-05-22T09:59:49.771Z,3.50
2017-05-22T10:02:16.790Z,4.32
2017-05-22T10:04:43.809Z,3.84
2017-05-22T10:07:12.058Z,3.78
2017-05-22T10:09:39.073Z,3.08
2017-05-22T10:12:06.136Z,3.38
2017-05-22T10:14:33.503Z,3.44
2017-05-22T10:16:59.827Z,3.44
2017-05-22T10:19:26.851Z,3.94
2017-05-22T10:21:55.049Z,4.56
2017-05-22T10:24:22.046Z,3.18
2017-05-22T10:26:49.066Z,3.30
2017-05-22T10:29:17.486Z,3.38
2017-05-22T10:31:44.497Z,2.92
2017-05-22T10:34:11.497Z,3.56
2017-05-22T10:36:38.853Z,2.92
2017-05-22T10:39:05.890Z,3.92
2017-05-22T10:41:32.897Z,3.64
2017-05-22T10:44:00.174Z,3.80
2017-05-22T10:46:27.175Z,3.40
2017-05-22T10:48:54.174Z,4.04
2017-05-22T10:51:22.361Z,4.44
2017-05-22T10:53:49.380Z,3.58
2017-05-22T10:56:16.406Z,3.66
2017-05-22T10:58:44.497Z,3.72
2017-05-22T11:01:11.526Z,3.82
2017-05-22T11:03:38.537Z,4.00
2017-05-22T11:06:06.699Z,3.40
2017-05-22T11:08:33.722Z,3.70
2017-05-22T11:11:00.801Z,2.94
2017-05-22T11:13:29.055Z,3.50
2017-05-22T11:15:56.078Z,3.14
2017-05-22T11:18:23.085Z,3.38
2017-05-22T11:20:51.149Z,3.20
2017-05-22T11:23:18.151Z,3.26
2017-05-22T11:25:45.319Z,3.18
2017-05-22T11:28:12.667Z,3.40
2017-05-22T11:30:41.529Z,2.34
2017-05-22T11:33:09.128Z,2.76
2017-05-22T11:35:36.898Z,2.74
2017-05-22T11:38:03.907Z,3.04
2017-05-22T11:40:30.922Z,3.18
2017-05-22T11:42:57.518Z,2.58
2017-05-22T11:45:24.514Z,2.30
2017-05-22T11:47:51.522Z,2.02
2017-05-22T11:50:18.831Z,2.26
2017-05-22T11:52:45.843Z,2.36
2017-05-22T11:55:12.841Z,2.80
2017-05-22T11:57:40.187Z,1.82
2017-05-22T12:00:07.245Z,1.90
2017-05-22T12:02:34.241Z,1.84
2017-05-22T12:05:01.542Z,2.04
2017-05-22T12:07:28.546Z,2.40
2017-05-22T12:09:55.661Z,3.90
2017-05-22T12:12:22.998Z,1.80
2017-05-22T12:14:50.018Z,1.64
2017-05-22T12:17:17.301Z,2.10
2017-05-22T12:19:44.750Z,2.46
2017-05-22T12:22:11.757Z,3.52
2017-05-22T12:24:38.752Z,3.10
2017-05-22T12:27:06.074Z,2.82
2017-05-22T12:29:34.117Z,2.46
2017-05-22T12:32:01.113Z,2.70
2017-05-22T12:34:29.398Z,2.76
2017-05-22T12:36:56.421Z,2.10
2017-05-22T12:39:23.431Z,1.92
2017-05-22T12:41:50.745Z,1.98
2017-05-22T12:44:17.753Z,2.78
2017-05-22T12:46:44.771Z,1.88
2017-05-22T12:49:12.850Z,2.18
2017-05-22T12:51:39.857Z,2.24
2017-05-22T12:54:06.861Z,3.00
2017-05-22T12:56:34.241Z,2.46
2017-05-22T12:59:01.246Z,4.04
2017-05-22T13:01:28.246Z,2.34
2017-05-22T13:03:55.586Z,2.10
2017-05-22T13:06:22.602Z,2.70
2017-05-22T13:08:49.637Z,2.50
2017-05-22T13:11:16.941Z,2.52
2017-05-22T13:13:43.938Z,3.14
2017-05-22T13:16:10.200Z,2.52
2017-05-22T13:18:38.389Z,2.26
2017-05-22T13:21:04.669Z,3.86
2017-05-22T13:23:31.670Z,2.76
2017-05-22T13:25:59.009Z,3.46
2017-05-22T13:28:26.019Z,2.48
2017-05-22T13:30:53.022Z,2.12
2017-05-22T13:33:20.318Z,2.78
2017-05-22T13:35:47.340Z,2.08
2017-05-22T13:38:14.354Z,3.24
2017-05-22T13:40:41.705Z,2.64
2017-05-22T13:43:08.394Z,2.98
2017-05-22T13:45:35.394Z,3.38
2017-05-22T13:48:02.746Z,2.90
2017-05-22T13:50:29.026Z,3.20
2017-05-22T13:52:56.198Z,2.82
2017-05-22T13:55:24.261Z,2.42
2017-05-22T13:57:51.582Z,3.10
2017-05-22T14:00:18.589Z,3.34
2017-05-22T14:02:46.970Z,2.06
2017-05-22T14:05:14.005Z,3.34
2017-05-22T14:07:41.006Z,3.06
2017-05-22T14:10:08.310Z,2.50
2017-05-22T14:12:35.313Z,2.16
2017-05-22T14:15:02.321Z,2.32
2017-05-22T14:17:30.536Z,1.92
2017-05-22T14:19:57.540Z,2.24
2017-05-22T14:22:24.545Z,4.00
2017-05-22T14:24:52.592Z,1.98
2017-05-22T14:27:19.603Z,2.94
2017-05-22T14:29:46.618Z,3.06
2017-05-22T14:32:13.986Z,2.38
2017-05-22T14:34:40.998Z,2.46
2017-05-22T14:37:08.002Z,3.52
2017-05-22T14:39:35.309Z,5.86
2017-05-22T14:42:02.322Z,2.56
2017-05-22T14:44:29.339Z,2.90
2017-05-22T14:46:57.473Z,2.46
2017-05-22T14:49:24.494Z,2.10
2017-05-22T14:51:52.530Z,2.44
2017-05-22T14:54:20.558Z,1.94
2017-05-22T14:56:47.562Z,2.72
2017-05-22T14:59:15.621Z,4.54
2017-05-22T15:01:42.955Z,2.04
2017-05-22T15:04:09.957Z,3.02
2017-05-22T15:06:36.982Z,3.46
2017-05-22T15:09:04.309Z,3.90
2017-05-22T15:11:31.309Z,1.86
2017-05-22T15:13:58.310Z,3.08
2017-05-22T15:16:25.637Z,2.14
2017-05-22T15:18:52.646Z,1.94
2017-05-22T15:21:19.651Z,2.06
2017-05-22T15:23:46.987Z,3.60
2017-05-22T15:26:14.001Z,1.90
2017-05-22T15:28:41.005Z,1.96
2017-05-22T15:31:08.339Z,1.72
2017-05-22T15:33:35.359Z,2.26
2017-05-22T15:36:02.375Z,2.12
2017-05-22T15:38:29.730Z,1.58
2017-05-22T15:40:56.746Z,1.94
2017-05-22T15:43:23.759Z,1.80
2017-05-22T15:45:51.809Z,1.66
2017-05-22T15:48:18.815Z,1.52
2017-05-22T15:50:45.834Z,2.74
2017-05-22T15:53:14.894Z,2.74
2017-05-22T15:55:41.895Z,2.26
2017-05-22T15:58:08.902Z,2.18
2017-05-22T16:00:36.915Z,2.38
2017-05-22T16:03:03.946Z,2.44
2017-05-22T16:05:30.937Z,2.26
2017-05-22T16:07:58.334Z,11.22
2017-05-22T16:10:25.344Z,3.84
2017-05-22T16:12:52.368Z,3.02
2017-05-22T16:15:19.681Z,2.10
2017-05-22T16:17:46.678Z,2.72
2017-05-22T16:20:13.681Z,2.10
2017-05-22T16:22:41.026Z,3.08
2017-05-22T16:25:07.297Z,2.12
2017-05-22T16:27:34.298Z,1.98
2017-05-22T16:30:02.520Z,3.04
2017-05-22T16:32:29.521Z,2.08
2017-05-22T16:34:56.530Z,3.28
2017-05-22T16:37:24.757Z,10.84
2017-05-22T16:39:51.763Z,2.22
2017-05-22T16:42:18.774Z,5.50
2017-05-22T16:44:46.079Z,3.00
2017-05-22T16:47:13.092Z,1.78
2017-05-22T16:49:40.115Z,2.82
2017-05-22T16:52:07.442Z,1.74
2017-05-22T16:54:33.703Z,2.40
2017-05-22T16:57:00.709Z,1.56
2017-05-22T16:59:28.718Z,2.96
2017-05-22T17:01:55.721Z,3.60
2017-05-22T17:04:22.717Z,1.92
2017-05-22T17:06:50.918Z,2.04
2017-05-22T17:09:17.927Z,6.10
2017-05-22T17:11:44.929Z,2.00
2017-05-22T17:14:12.229Z,2.38
2017-05-22T17:16:39.270Z,2.34
2017-05-22T17:19:06.286Z,3.90
2017-05-22T17:21:33.574Z,3.22
2017-05-22T17:24:00.570Z,2.44
2017-05-22T17:26:27.583Z,2.22
2017-05-22T17:28:54.978Z,1.96
2017-05-22T17:31:21.999Z,2.72
2017-05-22T17:33:49.046Z,2.14
2017-05-22T17:36:16.463Z,4.80
2017-05-22T17:38:43.499Z,3.06
2017-05-22T17:41:10.511Z,2.84
2017-05-22T17:43:38.734Z,2.64
2017-05-22T17:46:05.761Z,2.86
2017-05-22T17:48:32.769Z,2.46
2017-05-22T17:51:01.017Z,2.66
2017-05-22T17:53:28.021Z,2.72
2017-05-22T17:55:55.013Z,5.00
2017-05-22T17:58:22.370Z,2.72
2017-05-22T18:00:48.633Z,2.50
2017-05-22T18:03:15.629Z,3.04
2017-05-22T18:05:42.961Z,2.48
2017-05-22T18:08:09.957Z,3.08
2017-05-22T18:10:37.031Z,3.90
2017-05-22T18:13:04.322Z,3.90
2017-05-22T18:15:31.329Z,2.82
2017-05-22T18:17:58.448Z,2.92
2017-05-22T18:20:25.865Z,2.74
2017-05-22T18:22:52.874Z,3.40
2017-05-22T18:25:19.874Z,3.56
2017-05-22T18:27:47.186Z,8.56
2017-05-22T18:30:15.214Z,3.58
2017-05-22T18:32:42.228Z,4.84
2017-05-22T18:35:09.517Z,4.82
2017-05-22T18:37:37.522Z,3.78
2017-05-22T18:40:04.597Z,5.26
2017-05-22T18:42:31.909Z,4.58
2017-05-22T18:44:59.917Z,3.18
2017-05-22T18:47:26.934Z,3.86
2017-05-22T18:49:54.283Z,5.52
2017-05-22T18:52:21.297Z,3.56
2017-05-22T18:54:48.292Z,3.86
2017-05-22T18:57:15.730Z,2.98
2017-05-22T18:59:42.767Z,3.46
2017-05-22T19:02:09.850Z,3.00
2017-05-22T19:04:38.115Z,3.40
2017-05-22T19:07:05.126Z,3.36
2017-05-22T19:09:31.396Z,3.82
2017-05-22T19:11:57.978Z,3.90
2017-05-22T19:14:24.986Z,3.16
2017-05-22T19:16:51.989Z,3.46
2017-05-22T19:19:19.357Z,3.86
2017-05-22T19:21:46.382Z,3.30
2017-05-22T19:24:13.410Z,3.18
2017-05-22T19:26:41.547Z,3.22
2017-05-22T19:29:08.674Z,6.50
2017-05-22T19:31:35.697Z,3.82
2017-05-22T19:34:03.075Z,4.28
2017-05-22T19:36:30.069Z,4.92
2017-05-22T19:38:57.100Z,3.90
2017-05-22T19:41:24.509Z,3.98
2017-05-22T19:43:51.509Z,3.72
2017-05-22T19:46:18.501Z,3.80
2017-05-22T19:48:45.778Z,3.34
2017-05-22T19:51:12.809Z,4.24
2017-05-22T19:53:39.805Z,3.90
2017-05-22T19:56:07.106Z,3.40
2017-05-22T19:58:34.106Z,3.98
2017-05-22T20:01:01.107Z,4.06
2017-05-22T20:03:29.357Z,4.58
2017-05-22T20:05:56.364Z,7.52
2017-05-22T20:08:23.495Z,3.96
2017-05-22T20:10:50.820Z,5.28
2017-05-22T20:13:17.819Z,4.06
2017-05-22T20:15:44.861Z,3.92
2017-05-22T20:18:12.193Z,4.32
2017-05-22T20:20:39.208Z,4.98
2017-05-22T20:23:07.389Z,4.24
2017-05-22T20:25:34.757Z,4.20
2017-05-22T20:28:01.753Z,14.98
2017-05-22T20:30:28.061Z,43.00
2017-05-22T20:32:55.361Z,29.06
2017-05-22T20:35:22.785Z,12.40
2017-05-22T20:37:50.835Z,7.14
2017-05-22T20:40:18.145Z,3.84
2017-05-22T20:42:45.148Z,4.60
2017-05-22T20:45:12.149Z,4.02
2017-05-22T20:47:39.493Z,4.40
2017-05-22T20:50:06.510Z,4.82
2017-05-22T20:52:33.530Z,6.02
2017-05-22T20:55:00.845Z,4.96
2017-05-22T20:57:27.969Z,4.46
2017-05-22T20:59:54.967Z,4.66
2017-05-22T21:02:22.285Z,4.56
2017-05-22T21:04:49.297Z,5.54
2017-05-22T21:07:16.577Z,4.76
2017-05-22T21:09:44.742Z,5.42
2017-05-22T21:12:11.750Z,4.88
2017-05-22T21:14:38.776Z,5.74
2017-05-22T21:17:07.007Z,4.70
2017-05-22T21:19:33.281Z,5.54
2017-05-22T21:22:00.298Z,5.16
2017-05-22T21:24:27.655Z,6.74
2017-05-22T21:26:54.654Z,7.00
2017-05-22T21:29:21.683Z,6.50
2017-05-22T21:31:48.965Z,6.78
2017-05-22T21:34:15.962Z,6.88
2017-05-22T21:36:42.965Z,7.64
2017-05-22T21:39:10.341Z,6.40
2017-05-22T21:41:37.340Z,6.80
2017-05-22T21:44:04.353Z,7.48
2017-05-22T21:46:31.690Z,8.06
2017-05-22T21:48:58.699Z,6.24
2017-05-22T21:51:25.722Z,7.82
2017-05-22T21:53:53.037Z,7.66
2017-05-22T21:56:21.095Z,7.30
2017-05-22T21:58:47.371Z,7.10
2017-05-22T22:01:14.697Z,7.64
2017-05-22T22:03:41.694Z,8.18
2017-05-22T22:06:07.945Z,8.80
2017-05-22T22:08:34.501Z,7.84
2017-05-22T22:11:01.558Z,7.42
2017-05-22T22:13:29.128Z,7.54
2017-05-22T22:15:55.730Z,8.58
2017-05-22T22:18:22.741Z,8.80
2017-05-22T22:20:50.470Z,8.72
2017-05-22T22:23:17.754Z,8.20
2017-05-22T22:25:44.757Z,8.60
2017-05-22T22:28:11.753Z,8.48
2017-05-22T22:30:39.244Z,8.58
2017-05-22T22:33:07.061Z,10.16
2017-05-22T22:35:34.062Z,11.40
2017-05-22T22:38:00.622Z,10.90
2017-05-22T22:40:27.633Z,10.46
2017-05-22T22:42:54.654Z,9.14
2017-05-22T22:45:21.939Z,10.08
2017-05-22T22:47:48.935Z,10.34
2017-05-22T22:50:15.938Z,9.64
2017-05-22T22:52:44.174Z,10.48
2017-05-22T22:55:10.458Z,10.68
2017-05-22T22:57:37.465Z,13.08
2017-05-22T23:00:05.602Z,10.94
2017-05-22T23:02:32.627Z,10.96
2017-05-22T23:04:59.626Z,11.30
2017-05-22T23:07:27.750Z,11.14
2017-05-22T23:09:54.741Z,10.90
2017-05-22T23:12:21.745Z,15.44
2017-05-22T23:14:49.057Z,11.18
2017-05-22T23:17:16.069Z,10.72
2017-05-22T23:19:43.070Z,10.52
2017-05-22T23:22:11.269Z,10.52
2017-05-22T23:24:38.282Z,10.82
2017-05-22T23:27:05.315Z,11.06
2017-05-22T23:29:32.675Z,11.70
2017-05-22T23:31:59.673Z,11.14
2017-05-22T23:34:26.685Z,11.14
2017-05-22T23:36:54.027Z,11.12
2017-05-22T23:39:21.027Z,11.92
2017-05-22T23:41:48.126Z,11.02
2017-05-22T23:44:15.469Z,9.94
2017-05-22T23:46:42.469Z,10.32
2017-05-22T23:49:09.465Z,9.64
2017-05-22T23:51:36.809Z,10.10
2017-05-22T23:54:03.821Z,10.90
2017-05-22T23:56:30.817Z,9.50
2017-05-22T23:58:58.134Z,9.44
